Time;durP1;ratioP1;P1;durP2;ratioP2;P2;SDS_P1;SDS_P2;PMS_P1;PMS_P2;Temp;Humidity;BMP_temperature;BMP_pressure;BME280_temperature;BME280_humidity;BME280_pressure;Samples;Min_cycle;Max_cycle;Signal;HPM_P1;HPM_P2
2023/09/25 00:03:10;;;;;;;3.87;3.20;;;;;;;-145.68;100.00;75391.09;10451700;28;20195;-75
2023/09/25 00:08:10;;;;;;;5.57;3.90;;;;;;;-145.68;100.00;75389.09;10455994;28;20180;-75
2023/09/25 00:13:10;;;;;;;4.00;3.70;;;;;;;-145.68;100.00;75385.09;10450919;28;20219;-75
2023/09/25 00:18:12;;;;;;;5.83;3.97;;;;;;;-145.68;100.00;75385.09;10451039;28;20694;-75
2023/09/25 00:23:12;;;;;;;5.23;3.67;;;;;;;-145.68;100.00;75387.09;10453245;28;20667;-75
2023/09/25 00:28:12;;;;;;;4.37;3.60;;;;;;;-145.68;100.00;75389.09;10451974;28;20188;-75
2023/09/25 00:33:13;;;;;;;3.97;3.67;;;;;;;-145.68;100.00;75395.09;10450487;28;20192;-74
2023/09/25 00:38:13;;;;;;;4.37;3.37;;;;;;;-145.68;100.00;75401.09;10449894;28;20216;-75
2023/09/25 00:43:14;;;;;;;4.40;3.23;;;;;;;-145.68;100.00;75415.09;10454450;28;20550;-74
2023/09/25 00:48:26;;;;;;;3.90;3.60;;;;;;;-145.68;100.00;75423.09;10415362;28;20227;-75
2023/09/25 00:53:27;;;;;;;5.00;4.00;;;;;;;-145.68;100.00;75421.09;10448961;28;20199;-75
2023/09/25 00:58:28;;;;;;;8.50;4.43;;;;;;;-145.68;100.00;75407.09;10414723;28;20307;-75
2023/09/25 01:03:31;;;;;;;7.00;4.37;;;;;;;-145.68;100.00;75399.09;10452640;28;20200;-74
2023/09/25 01:08:32;;;;;;;6.47;4.30;;;;;;;-145.68;100.00;75389.09;10448148;28;20197;-74
2023/09/25 01:13:33;;;;;;;3.97;3.60;;;;;;;-145.68;100.00;75375.09;10448709;28;20204;-75
2023/09/25 01:18:33;;;;;;;3.77;3.47;;;;;;;-145.68;100.00;75387.09;10448543;28;20243;-75
2023/09/25 01:23:34;;;;;;;5.30;4.27;;;;;;;-145.68;100.00;75383.09;10452194;28;20224;-75
2023/09/25 01:28:34;;;;;;;4.43;3.90;;;;;;;-145.68;100.00;75375.09;10448555;28;20180;-75
2023/09/25 01:33:35;;;;;;;4.27;3.37;;;;;;;-145.68;100.00;75371.09;10448061;28;20675;-75
2023/09/25 01:38:35;;;;;;;6.37;3.57;;;;;;;-145.68;100.00;75373.09;10429628;28;20254;-75
2023/09/25 01:43:36;;;;;;;3.73;3.43;;;;;;;-145.68;100.00;75365.09;10451911;28;20250;-75
2023/09/25 01:48:36;;;;;;;6.13;3.80;;;;;;;-145.68;100.00;75363.09;10447212;28;20227;-75
2023/09/25 01:53:37;;;;;;;3.97;3.57;;;;;;;-145.68;100.00;75363.09;10446723;28;20191;-75
2023/09/25 01:58:38;;;;;;;5.03;3.40;;;;;;;-145.68;100.00;75379.09;10433948;28;20217;-75
2023/09/25 02:03:38;;;;;;;4.13;3.77;;;;;;;-145.68;100.00;75379.09;10429120;28;20774;-74
2023/09/25 02:08:40;;;;;;;5.13;3.53;;;;;;;-145.68;100.00;75361.09;10428604;28;20200;-75
2023/09/25 02:13:41;;;;;;;4.57;4.13;;;;;;;-145.68;100.00;75351.09;10446669;28;20254;-75
2023/09/25 02:18:41;;;;;;;4.50;4.10;;;;;;;-145.68;100.00;75349.09;10450810;28;20272;-74
2023/09/25 02:23:41;;;;;;;4.90;4.20;;;;;;;-145.68;100.00;75369.09;10427586;28;20559;-75
2023/09/25 02:28:42;;;;;;;7.37;3.73;;;;;;;-145.68;100.00;75371.09;10446574;28;20235;-75
2023/09/25 02:33:42;;;;;;;5.53;3.53;;;;;;;-145.68;100.00;75373.09;10446035;28;20558;-74
2023/09/25 02:38:43;;;;;;;4.60;4.10;;;;;;;-145.68;100.00;75375.09;10432110;28;21053;-74
2023/09/25 02:43:43;;;;;;;4.80;4.03;;;;;;;-145.68;100.00;75371.09;10428225;28;20212;-74
2023/09/25 02:48:44;;;;;;;4.80;4.10;;;;;;;-145.68;100.00;75369.09;10445290;28;20231;-75
2023/09/25 02:53:44;;;;;;;3.80;3.50;;;;;;;-145.68;100.00;75361.09;10445860;28;20192;-74
2023/09/25 02:58:45;;;;;;;5.37;4.10;;;;;;;-145.68;100.00;75351.09;10449980;28;20649;-74
2023/09/25 03:03:45;;;;;;;8.40;3.50;;;;;;;-145.68;100.00;75347.09;10444924;28;20192;-74
2023/09/25 03:08:45;;;;;;;4.33;3.90;;;;;;;-145.68;100.00;75349.09;10427815;28;20198;-75
2023/09/25 03:13:46;;;;;;;6.80;3.90;;;;;;;-145.68;100.00;75349.09;10445344;28;20227;-75
2023/09/25 03:18:46;;;;;;;4.23;3.77;;;;;;;-145.68;100.00;75351.09;10431486;28;20696;-74
2023/09/25 03:23:47;;;;;;;4.20;3.70;;;;;;;-145.68;100.00;75347.09;10444941;28;20196;-75
2023/09/25 03:28:48;;;;;;;5.70;4.00;;;;;;;-145.68;100.00;75355.09;10445285;28;20497;-75
2023/09/25 03:33:50;;;;;;;5.77;4.10;;;;;;;-145.68;100.00;75355.09;10434411;28;20238;-74
2023/09/25 03:38:50;;;;;;;5.23;4.07;;;;;;;-145.68;100.00;75367.09;10418047;28;20224;-74
2023/09/25 03:43:51;;;;;;;6.53;4.33;;;;;;;-145.68;100.00;75359.09;10434196;28;20656;-74
2023/09/25 03:48:51;;;;;;;5.27;4.10;;;;;;;-145.68;100.00;75351.09;10433145;28;20235;-74
2023/09/25 03:53:51;;;;;;;3.83;3.43;;;;;;;-145.68;100.00;75351.09;10438050;28;20196;-74
2023/09/25 03:58:52;;;;;;;5.40;3.63;;;;;;;-145.68;100.00;75357.09;10416726;28;20222;-75
2023/09/25 04:03:52;;;;;;;4.57;3.93;;;;;;;-145.68;100.00;75367.09;10450608;28;20196;-75
2023/09/25 04:08:52;;;;;;;4.73;4.33;;;;;;;-145.68;100.00;75369.09;10451374;28;20659;-74
2023/09/25 04:13:54;;;;;;;6.67;4.33;;;;;;;-145.68;100.00;75369.09;10433516;28;20196;-74
2023/09/25 04:18:55;;;;;;;6.53;4.50;;;;;;;-145.68;100.00;75353.09;10448301;28;20277;-75
2023/09/25 04:23:55;;;;;;;5.97;3.93;;;;;;;-145.68;100.00;75349.09;10450721;28;20706;-75
2023/09/25 04:28:57;;;;;;;5.30;4.20;;;;;;;-145.68;100.00;75357.09;10451006;28;20248;-75
2023/09/25 04:33:57;;;;;;;5.07;3.87;;;;;;;-145.68;100.00;75351.09;10454716;28;20225;-74
2023/09/25 04:38:57;;;;;;;7.30;4.60;;;;;;;-145.68;100.00;75351.09;10432623;28;20646;-74
2023/09/25 04:43:58;;;;;;;5.03;4.03;;;;;;;-145.68;100.00;75351.09;10449048;28;20203;-74
2023/09/25 04:49:00;;;;;;;4.80;4.33;;;;;;;-145.68;100.00;75351.09;10450532;28;20243;-74
2023/09/25 04:54:01;;;;;;;5.03;3.87;;;;;;;-145.68;100.00;75341.09;10453389;28;20222;-75
2023/09/25 04:59:01;;;;;;;4.67;3.90;;;;;;;-145.68;100.00;75335.09;10449356;28;20233;-75
2023/09/25 05:04:02;;;;;;;6.97;3.93;;;;;;;-145.68;100.00;75335.09;10449643;28;20279;-75
2023/09/25 05:09:02;;;;;;;4.20;3.80;;;;;;;-145.68;100.00;75333.09;10454088;28;20249;-75
2023/09/25 05:14:05;;;;;;;4.13;3.63;;;;;;;-145.68;100.00;75339.09;10448271;28;20196;-74
2023/09/25 05:19:05;;;;;;;7.00;4.43;;;;;;;-145.68;100.00;75341.09;10448956;28;20204;-75
2023/09/25 05:24:06;;;;;;;5.57;3.87;;;;;;;-145.68;100.00;75337.09;10448336;28;20188;-75
2023/09/25 05:29:06;;;;;;;4.87;4.03;;;;;;;-145.68;100.00;75335.09;10453153;28;20199;-75
2023/09/25 05:34:07;;;;;;;4.10;3.67;;;;;;;-145.68;100.00;75349.09;10447773;28;20207;-75
2023/09/25 05:39:08;;;;;;;6.57;4.00;;;;;;;-145.68;100.00;75349.09;10448463;28;20219;-74
2023/09/25 05:44:10;;;;;;;5.93;4.23;;;;;;;-145.68;100.00;75347.09;10447329;28;20195;-75
2023/09/25 05:49:11;;;;;;;6.63;4.20;;;;;;;-145.68;100.00;75351.09;10452288;28;20232;-75
2023/09/25 05:54:11;;;;;;;4.93;4.43;;;;;;;-145.68;100.00;75343.09;10447333;28;20187;-74
2023/09/25 05:59:11;;;;;;;7.10;4.40;;;;;;;-145.68;100.00;75331.09;10435903;28;20199;-74
2023/09/25 06:04:12;;;;;;;7.07;5.00;;;;;;;-145.68;100.00;75327.09;10429470;28;20199;-75
2023/09/25 06:09:15;;;;;;;11.43;5.10;;;;;;;-145.68;100.00;75271.13;10451572;28;20195;-74
2023/09/25 06:14:16;;;;;;;5.77;4.37;;;;;;;-145.68;100.00;75193.13;10446359;28;20207;-75
2023/09/25 06:19:18;;;;;;;5.13;3.70;;;;;;;-145.68;100.00;75127.16;10446577;28;20253;-75
2023/09/25 06:24:18;;;;;;;3.33;2.90;;;;;;;-145.68;100.00;75023.16;10451000;28;20195;-75
2023/09/25 06:29:21;;;;;;;5.27;3.30;;;;;;;-145.68;100.00;74979.19;10447219;28;20195;-75
2023/09/25 06:34:21;;;;;;;4.40;2.63;;;;;;;-145.68;100.00;74979.19;10427695;28;20555;-75
2023/09/25 06:39:23;;;;;;;5.53;3.20;;;;;;;-145.68;100.00;74891.19;10444156;28;20195;-75
2023/09/25 06:44:23;;;;;;;2.97;2.73;;;;;;;-145.68;100.00;74877.19;10450233;28;20283;-75
2023/09/25 06:49:23;;;;;;;3.10;2.77;;;;;;;-145.68;100.00;74953.19;10445208;28;20262;-74
2023/09/25 06:54:24;;;;;;;3.23;2.90;;;;;;;-145.68;100.00;74943.19;10445787;28;20602;-74
2023/09/25 06:59:24;;;;;;;5.20;3.30;;;;;;;-145.68;100.00;74897.19;10427118;28;20250;-74
2023/09/25 07:04:24;;;;;;;3.90;3.30;;;;;;;-145.68;100.00;74857.22;10450211;28;20746;-74
2023/09/25 07:09:25;;;;;;;4.00;2.90;;;;;;;-145.68;100.00;74853.22;10449807;28;20191;-74
2023/09/25 07:14:25;;;;;;;4.57;3.40;;;;;;;-145.68;100.00;74827.22;10419109;28;20699;-74
2023/09/25 07:19:26;;;;;;;3.90;3.17;;;;;;;-145.68;100.00;74769.22;10453268;28;20253;-75
2023/09/25 07:24:26;;;;;;;3.67;3.23;;;;;;;-145.68;100.00;74693.25;10439925;28;20656;-74
2023/09/25 07:29:27;;;;;;;3.65;3.17;;;;;;;-145.68;100.00;74591.28;10452758;28;20192;-75
2023/09/25 07:34:29;;;;;;;5.70;3.22;;;;;;;-145.68;100.00;74503.31;10434884;28;20211;-74
2023/09/25 07:39:30;;;;;;;5.32;3.03;;;;;;;-145.68;95.08;74421.34;10452012;28;20196;-75
2023/09/25 07:44:33;;;;;;;3.00;2.70;;;;;;;-145.68;85.98;74303.38;10457107;28;20210;-75
2023/09/25 07:49:40;;;;;;;5.50;3.00;;;;;;;-145.68;78.86;74183.44;10451558;28;20235;-75
2023/09/25 07:54:44;;;;;;;6.82;2.70;;;;;;;-145.68;74.05;74095.47;10451951;28;20215;-75
2023/09/25 07:59:44;;;;;;;11.82;3.80;;;;;;;-145.68;71.71;74207.44;10456287;28;20196;-74
2023/09/25 08:04:45;;;;;;;15.60;5.25;;;;;;;-145.68;68.51;74037.50;10433667;28;20187;-75
2023/09/25 08:09:45;;;;;;;11.70;4.22;;;;;;;-145.68;66.37;74011.53;10433241;28;20258;-73
2023/09/25 08:14:45;;;;;;;14.05;4.93;;;;;;;-145.68;64.25;73925.56;10451159;28;20204;-73
2023/09/25 08:19:46;;;;;;;12.95;3.22;;;;;;;-145.68;63.39;73767.66;10446042;28;20696;-75
2023/09/25 08:24:47;;;;;;;5.65;2.78;;;;;;;-145.68;56.23;73533.78;10432450;28;20257;-74
2023/09/25 08:29:47;;;;;;;6.40;2.38;;;;;;;-145.68;50.69;73473.81;10431760;28;20261;-74
2023/09/25 08:34:47;;;;;;;2.45;1.65;;;;;;;-145.68;48.94;73387.88;10415552;28;20723;-74
2023/09/25 08:39:48;;;;;;;3.80;1.90;;;;;;;-145.68;46.95;73341.91;10449738;28;20282;-74
2023/09/25 08:44:52;;;;;;;4.45;2.10;;;;;;;-145.68;45.46;73291.94;10436727;28;20656;-74
2023/09/25 08:49:53;;;;;;;2.60;1.40;;;;;;;-145.68;47.03;73527.78;10445845;28;20243;-74
2023/09/25 08:54:54;;;;;;;3.35;1.60;;;;;;;-145.68;47.43;73431.84;10431590;28;20219;-74
2023/09/25 08:59:54;;;;;;;2.20;1.45;;;;;;;-145.68;47.45;73435.84;10431114;28;20191;-74
2023/09/25 09:04:54;;;;;;;1.85;1.40;;;;;;;-145.68;45.67;73287.94;10454090;28;20257;-74
2023/09/25 09:09:57;;;;;;;2.00;1.20;;;;;;;-145.68;44.86;73293.94;10448373;28;20575;-74
2023/09/25 09:14:57;;;;;;;2.25;1.45;;;;;;;-145.68;44.44;73259.94;10431055;28;20688;-74
2023/09/25 09:19:58;;;;;;;1.60;1.20;;;;;;;-145.68;42.75;73200.00;10430017;28;20206;-74
2023/09/25 09:25:00;;;;;;;1.88;1.25;;;;;;;-145.68;45.07;73359.88;10453173;28;20188;-74
2023/09/25 09:30:04;;;;;;;1.95;1.52;;;;;;;-145.68;46.14;73447.81;10430280;28;20196;-74
2023/09/25 09:35:07;;;;;;;2.20;2.00;;;;;;;-145.68;46.32;73473.81;10447893;28;20648;-74
2023/09/25 09:40:11;;;;;;;1.33;1.15;;;;;;;-145.68;45.74;73419.84;10447643;28;20274;-74
2023/09/25 09:45:13;;;;;;;4.55;1.35;;;;;;;-145.68;46.94;73467.81;10435272;28;20619;-74
2023/09/25 09:50:19;;;;;;;2.50;1.30;;;;;;;-145.68;45.73;73259.94;10370205;28;20243;-74
2023/09/25 09:55:23;;;;;;;1.17;1.17;;;;;;;-145.68;45.08;73397.84;10350218;28;20240;-74
2023/09/25 10:00:24;;;;;;;1.67;1.30;;;;;;;-145.68;45.25;73335.91;10349910;28;20232;-74
2023/09/25 10:05:24;;;;;;;2.35;1.33;;;;;;;-145.68;44.31;73134.03;10371989;28;20193;-74
2023/09/25 10:10:25;;;;;;;2.25;1.20;;;;;;;-145.68;42.04;72962.16;10367346;28;20468;-75
2023/09/25 10:15:25;;;;;;;1.42;1.10;;;;;;;-145.68;40.95;72976.16;10354326;28;20309;-74
2023/09/25 10:20:41;;;;;;;1.95;1.00;;;;;;;-145.68;43.59;73086.06;10371335;28;20189;-74
2023/09/25 10:25:52;;;;;;;1.20;1.10;;;;;;;-145.68;41.96;73048.09;10365969;28;20184;-74
2023/09/25 10:30:57;;;;;;;2.90;1.30;;;;;;;-145.68;43.51;73188.00;10366496;28;20197;-74
2023/09/25 10:36:04;;;;;;;2.50;1.17;;;;;;;-145.68;44.96;73283.94;10348768;28;20703;-75
2023/09/25 10:41:06;;;;;;;1.50;1.20;;;;;;;-145.68;43.82;73158.00;10370991;28;20205;-74
2023/09/25 10:46:06;;;;;;;1.67;1.10;;;;;;;-145.68;45.76;73279.94;10371007;28;20197;-74
2023/09/25 10:51:07;;;;;;;2.78;1.23;;;;;;;-145.68;44.35;73253.94;10357349;28;20244;-74
2023/09/25 10:56:08;;;;;;;1.55;1.30;;;;;;;-145.68;44.72;73142.03;10374436;28;20219;-74
2023/09/25 11:01:09;;;;;;;1.63;0.93;;;;;;;-145.68;39.82;72860.22;10420840;28;20360;-74
2023/09/25 11:06:10;;;;;;;3.35;1.15;;;;;;;-145.68;38.54;72826.25;10397557;28;20229;-74
2023/09/25 11:11:14;;;;;;;2.72;1.40;;;;;;;-145.68;39.80;72956.16;10398693;28;20316;-74
2023/09/25 11:16:14;;;;;;;0.80;0.80;;;;;;;-145.68;40.12;73012.13;10415109;28;20256;-74
2023/09/25 11:21:15;;;;;;;0.82;0.82;;;;;;;-145.68;41.89;73080.06;10416257;28;20275;-74
2023/09/25 11:26:17;;;;;;;3.20;0.90;;;;;;;-145.68;41.37;73070.06;10398321;28;20231;-74
2023/09/25 11:31:17;;;;;;;3.90;0.80;;;;;;;-145.68;42.01;73046.09;10397370;28;20322;-74
2023/09/25 11:36:19;;;;;;;1.40;1.17;;;;;;;-145.68;40.58;72888.22;10401480;28;20269;-74
2023/09/25 11:41:19;;;;;;;1.23;0.70;;;;;;;-145.68;37.95;72828.25;10416677;28;20201;-74
2023/09/25 11:46:19;;;;;;;3.65;1.08;;;;;;;-145.68;39.26;72770.31;10414706;28;20193;-74
2023/09/25 11:51:20;;;;;;;1.23;0.90;;;;;;;-145.68;38.21;72794.28;10397249;28;20232;-75
2023/09/25 11:56:21;;;;;;;2.28;0.98;;;;;;;-145.68;39.49;72990.13;10424728;28;20594;-74
2023/09/25 12:01:21;;;;;;;1.20;1.00;;;;;;;-145.68;44.29;73367.88;10422017;28;20196;-74
2023/09/25 12:06:24;;;;;;;1.02;0.90;;;;;;;-145.68;43.38;73184.00;10421588;28;20191;-74
2023/09/25 12:11:24;;;;;;;1.10;1.00;;;;;;;-145.68;44.65;73303.91;10404628;28;20199;-74
2023/09/25 12:16:24;;;;;;;1.25;1.10;;;;;;;-145.68;44.75;73343.88;10408016;28;20806;-73
2023/09/25 12:21:25;;;;;;;1.92;1.08;;;;;;;-145.68;44.17;73221.97;10421461;28;20570;-74
2023/09/25 12:26:26;;;;;;;0.80;0.80;;;;;;;-145.68;43.39;73279.94;10421198;28;20191;-74
2023/09/25 12:31:26;;;;;;;2.58;1.05;;;;;;;-145.68;45.05;73229.97;10404122;28;20188;-74
2023/09/25 12:36:27;;;;;;;1.92;0.90;;;;;;;-145.68;43.34;73263.94;10425765;28;20308;-73
2023/09/25 12:41:27;;;;;;;2.75;0.85;;;;;;;-145.68;41.72;72998.13;10425741;28;20284;-73
2023/09/25 12:46:28;;;;;;;1.05;0.80;;;;;;;-145.68;39.69;72932.19;10422365;28;20342;-74
2023/09/25 12:51:28;;;;;;;1.45;0.80;;;;;;;-145.68;41.18;73034.09;10422830;28;20241;-73
2023/09/25 12:56:29;;;;;;;5.60;1.00;;;;;;;-145.68;41.98;73000.13;10427189;28;20251;-73
2023/09/25 13:01:30;;;;;;;1.55;1.00;;;;;;;-145.68;38.70;72766.31;10404843;28;20279;-74
2023/09/25 13:06:34;;;;;;;1.00;0.80;;;;;;;-145.68;38.74;72792.28;10421838;28;20193;-74
2023/09/25 13:11:36;;;;;;;1.30;0.95;;;;;;;-145.68;39.53;72902.19;10427191;28;20223;-73
2023/09/25 13:16:36;;;;;;;0.80;0.80;;;;;;;-145.68;39.58;72728.34;10421810;28;20217;-74
2023/09/25 13:21:37;;;;;;;1.65;1.13;;;;;;;-145.68;40.55;73040.09;10403981;28;20189;-73
2023/09/25 13:26:37;;;;;;;1.48;0.90;;;;;;;-145.68;40.88;72944.16;10403930;28;20188;-74
2023/09/25 13:31:39;;;;;;;1.77;1.20;;;;;;;-145.68;42.21;73176.00;10401858;28;20200;-73
2023/09/25 13:36:40;;;;;;;2.33;1.15;;;;;;;-145.68;41.44;73004.13;10403383;28;20223;-73
2023/09/25 13:41:41;;;;;;;1.08;0.98;;;;;;;-145.68;40.45;72936.19;10402497;28;20193;-73
2023/09/25 13:46:41;;;;;;;1.50;1.08;;;;;;;-145.68;39.43;72828.25;10420219;28;20560;-73
2023/09/25 13:51:42;;;;;;;1.42;1.23;;;;;;;-145.68;40.93;72966.16;10408042;28;20197;-73
2023/09/25 13:56:43;;;;;;;2.08;1.20;;;;;;;-145.68;41.63;73008.13;10401772;28;20707;-73
2023/09/25 14:01:46;;;;;;;2.97;1.02;;;;;;;-145.68;40.03;72838.25;10420753;28;20197;-73
2023/09/25 14:06:47;;;;;;;2.10;1.10;;;;;;;-145.68;38.73;72644.41;10417295;28;20185;-74
2023/09/25 14:11:47;;;;;;;1.52;1.20;;;;;;;-145.68;39.25;72802.28;10406891;28;20512;-73
2023/09/25 14:16:47;;;;;;;2.70;1.08;;;;;;;-145.68;39.54;72872.22;10401016;28;21126;-73
2023/09/25 14:21:48;;;;;;;2.45;1.30;;;;;;;-145.68;39.54;72796.28;10400788;28;20210;-73
2023/09/25 14:26:49;;;;;;;2.22;1.20;;;;;;;-145.68;39.84;72828.25;10419054;28;20195;-73
2023/09/25 14:31:49;;;;;;;3.10;1.15;;;;;;;-145.68;40.50;72916.19;10406297;28;20253;-72
2023/09/25 14:36:50;;;;;;;2.85;1.05;;;;;;;-145.68;40.17;72788.28;10402104;28;20285;-74
2023/09/25 14:41:50;;;;;;;1.38;1.25;;;;;;;-145.68;36.67;72502.53;10401126;28;20226;-73
2023/09/25 14:46:51;;;;;;;1.85;1.27;;;;;;;-145.68;35.34;72388.63;10419326;28;20869;-73
2023/09/25 14:51:55;;;;;;;1.27;1.17;;;;;;;-145.68;35.63;72448.56;10419169;28;20203;-73
2023/09/25 14:56:56;;;;;;;5.65;1.67;;;;;;;-145.68;37.80;72736.31;10419380;28;20224;-73
2023/09/25 15:01:56;;;;;;;2.55;1.13;;;;;;;-145.68;36.18;72552.47;10419187;28;20660;-73
2023/09/25 15:06:56;;;;;;;1.45;1.23;;;;;;;-145.68;34.78;72394.63;10418844;28;20195;-73
2023/09/25 15:11:57;;;;;;;1.00;0.80;;;;;;;-145.68;36.46;72620.41;10418633;28;20601;-73
2023/09/25 15:16:57;;;;;;;1.65;1.13;;;;;;;-145.68;36.34;72502.53;10401624;28;20219;-74
2023/09/25 15:21:58;;;;;;;1.50;0.98;;;;;;;-145.68;35.83;72442.56;10418883;28;20610;-74
2023/09/25 15:26:59;;;;;;;3.05;1.10;;;;;;;-145.68;34.33;72328.69;10417886;28;20275;-74
2023/09/25 15:31:59;;;;;;;3.20;1.38;;;;;;;-145.68;34.31;72324.69;10425894;28;20701;-73
2023/09/25 15:36:59;;;;;;;4.78;1.30;;;;;;;-145.68;33.93;72232.75;10426609;28;20284;-73
2023/09/25 15:42:00;;;;;;;1.42;0.80;;;;;;;-145.68;32.68;72090.91;10425961;28;20530;-74
2023/09/25 15:47:01;;;;;;;1.20;1.10;;;;;;;-145.68;32.72;72140.84;10425373;28;20235;-74
2023/09/25 15:52:01;;;;;;;3.42;1.15;;;;;;;-145.68;36.62;72688.38;10404963;28;20487;-73
2023/09/25 15:57:01;;;;;;;2.78;1.10;;;;;;;-145.68;40.39;72968.16;10423696;28;20691;-74
2023/09/25 16:02:02;;;;;;;2.22;1.38;;;;;;;-145.68;42.77;73180.00;10422713;28;20200;-73
2023/09/25 16:07:04;;;;;;;1.98;1.25;;;;;;;-145.68;45.71;73337.91;10422002;28;20183;-74
2023/09/25 16:12:05;;;;;;;1.92;1.30;;;;;;;-145.68;48.40;73487.81;10423276;28;20200;-74
2023/09/25 16:17:05;;;;;;;2.25;1.90;;;;;;;-145.68;50.45;73579.75;10421611;28;20227;-73
2023/09/25 16:22:06;;;;;;;3.38;1.52;;;;;;;-145.68;51.72;73611.72;10422005;28;20191;-73
2023/09/25 16:27:06;;;;;;;3.47;1.90;;;;;;;-145.68;53.15;73661.69;10421758;28;20230;-74
2023/09/25 16:32:07;;;;;;;5.85;2.15;;;;;;;-145.68;54.61;73709.69;10422422;28;20196;-73
2023/09/25 16:37:07;;;;;;;3.40;2.03;;;;;;;-145.68;56.46;73777.63;10420620;28;20216;-74
2023/09/25 16:42:08;;;;;;;5.32;2.83;;;;;;;-145.68;57.90;73807.63;10420087;28;20200;-73
2023/09/25 16:47:08;;;;;;;3.38;1.90;;;;;;;-145.68;59.38;73815.63;10383005;28;1089449;-74
2023/09/25 16:52:08;;;;;;;3.17;2.20;;;;;;;-145.68;60.91;73865.59;10423428;28;20356;-74
2023/09/25 16:57:09;;;;;;;4.05;2.17;;;;;;;-145.68;63.68;73919.56;10422790;28;20688;-74
2023/09/25 17:02:09;;;;;;;2.60;2.40;;;;;;;-145.68;64.87;73925.56;10422527;28;20197;-74
2023/09/25 17:07:11;;;;;;;3.38;2.78;;;;;;;-145.68;66.94;73975.53;10422028;28;20254;-76
2023/09/25 17:12:13;;;;;;;5.03;2.80;;;;;;;-145.68;69.28;74009.53;10423953;28;20263;-74
2023/09/25 17:17:13;;;;;;;3.95;2.70;;;;;;;-145.68;73.04;74055.50;10403764;28;20220;-74
2023/09/25 17:22:13;;;;;;;3.53;2.92;;;;;;;-145.68;78.51;74113.47;10421820;28;20668;-74
2023/09/25 17:27:16;;;;;;;5.72;3.33;;;;;;;-145.68;81.51;74113.47;10421433;28;20187;-73
2023/09/25 17:32:16;;;;;;;5.63;3.70;;;;;;;-145.68;85.08;74133.47;10422335;28;20660;-73
2023/09/25 17:37:17;;;;;;;4.57;3.20;;;;;;;-145.68;88.40;74147.47;10420779;28;20519;-74
2023/09/25 17:42:18;;;;;;;6.97;3.30;;;;;;;-145.68;90.85;74155.44;10421118;28;20637;-74
2023/09/25 17:47:18;;;;;;;4.88;3.42;;;;;;;-145.68;94.06;74189.44;10421100;28;20228;-73
2023/09/25 17:52:18;;;;;;;4.72;2.75;;;;;;;-145.68;97.68;74219.44;10417423;28;20185;-74
2023/09/25 17:57:20;;;;;;;7.22;3.80;;;;;;;-145.68;100.00;74239.41;10420949;28;20584;-74
2023/09/25 18:02:20;;;;;;;6.07;3.63;;;;;;;-145.68;100.00;74253.41;10419732;28;20668;-74
2023/09/25 18:07:21;;;;;;;5.47;3.97;;;;;;;-145.68;100.00;74269.41;10421089;28;20200;-74
2023/09/25 18:12:21;;;;;;;5.65;3.90;;;;;;;-145.68;100.00;74289.41;10419781;28;20199;-74
2023/09/25 18:17:21;;;;;;;6.35;3.92;;;;;;;-145.68;100.00;74307.38;10419053;28;20212;-74
2023/09/25 18:22:22;;;;;;;5.63;3.63;;;;;;;-145.68;100.00;74331.38;10419513;28;20203;-74
2023/09/25 18:27:22;;;;;;;8.13;4.20;;;;;;;-145.68;100.00;74383.34;10419957;28;20258;-74
2023/09/25 18:32:23;;;;;;;6.95;3.75;;;;;;;-145.68;100.00;74387.34;10419060;28;20196;-75
2023/09/25 18:37:23;;;;;;;5.68;4.10;;;;;;;-145.68;100.00;74389.34;10418549;28;20228;-74
2023/09/25 18:42:24;;;;;;;5.90;4.55;;;;;;;-145.68;100.00;74415.34;10419128;28;20223;-74
2023/09/25 18:47:24;;;;;;;5.40;4.18;;;;;;;-145.68;100.00;74443.34;10418730;28;20752;-74
2023/09/25 18:52:24;;;;;;;7.30;5.20;;;;;;;-145.68;100.00;74455.34;10419234;28;20196;-74
2023/09/25 18:57:25;;;;;;;6.05;4.75;;;;;;;-145.68;100.00;74475.31;10418553;28;20252;-74
2023/09/25 19:02:25;;;;;;;6.53;4.45;;;;;;;-145.68;100.00;74463.31;10418939;28;20255;-74
2023/09/25 19:07:25;;;;;;;6.93;5.30;;;;;;;-145.68;100.00;74471.31;10427169;28;20576;-74
2023/09/25 19:12:26;;;;;;;6.85;5.18;;;;;;;-145.68;100.00;74485.31;10426718;28;20223;-73
2023/09/25 19:17:26;;;;;;;6.32;4.75;;;;;;;-145.68;100.00;74503.31;10425932;28;20267;-74
2023/09/25 19:22:27;;;;;;;6.65;4.85;;;;;;;-145.68;100.00;74515.31;10427439;28;20188;-74
2023/09/25 19:27:27;;;;;;;6.80;5.00;;;;;;;-145.68;100.00;74541.31;10408251;28;20239;-74
2023/09/25 19:32:27;;;;;;;7.82;4.72;;;;;;;-145.68;100.00;74543.31;10425540;28;20193;-74
2023/09/25 19:37:28;;;;;;;7.03;5.03;;;;;;;-145.68;100.00;74549.28;10424565;28;20220;-74
2023/09/25 19:42:28;;;;;;;8.70;4.90;;;;;;;-145.68;100.00;74547.31;10426722;28;20252;-74
2023/09/25 19:47:29;;;;;;;5.78;5.10;;;;;;;-145.68;100.00;74545.31;10424750;28;20630;-75
2023/09/25 19:52:29;;;;;;;6.85;5.38;;;;;;;-145.68;100.00;74543.31;10425729;28;20185;-74
2023/09/25 19:57:30;;;;;;;5.88;4.65;;;;;;;-145.68;100.00;74543.31;10424659;28;20294;-74
2023/09/25 20:02:30;;;;;;;7.75;5.72;;;;;;;-145.68;100.00;74559.28;10425745;28;20189;-74
2023/09/25 20:07:30;;;;;;;8.87;5.53;;;;;;;-145.68;100.00;74551.28;10424435;28;20192;-75
2023/09/25 20:12:31;;;;;;;7.30;6.43;;;;;;;-145.68;100.00;74559.28;10424198;28;20262;-74
2023/09/25 20:17:31;;;;;;;8.50;5.25;;;;;;;-145.68;100.00;74567.28;10402757;28;20221;-74
2023/09/25 20:22:32;;;;;;;10.07;5.82;;;;;;;-145.68;100.00;74575.28;10416793;28;20195;-74
2023/09/25 20:27:32;;;;;;;9.43;6.47;;;;;;;-145.68;100.00;74579.28;10422903;28;20185;-74
2023/09/25 20:32:32;;;;;;;10.80;6.40;;;;;;;-145.68;100.00;74575.28;10423328;28;20364;-74
2023/09/25 20:37:33;;;;;;;8.40;6.00;;;;;;;-145.68;100.00;74577.28;10423680;28;20271;-74
2023/09/25 20:42:33;;;;;;;8.43;6.77;;;;;;;-145.68;100.00;74589.28;10422593;28;20185;-74
2023/09/25 20:47:35;;;;;;;9.07;6.70;;;;;;;-145.68;100.00;74587.28;10422167;28;20271;-74
2023/09/25 20:52:35;;;;;;;9.33;6.90;;;;;;;-145.68;100.00;74607.28;10422248;28;20275;-74
2023/09/25 20:57:36;;;;;;;12.60;7.17;;;;;;;-145.68;100.00;74613.28;10422852;28;20307;-74
2023/09/25 21:02:36;;;;;;;9.57;6.43;;;;;;;-145.68;100.00;74611.28;10422294;28;20654;-74
2023/09/25 21:07:37;;;;;;;9.13;6.70;;;;;;;-145.68;100.00;74617.28;10421664;28;20247;-74
2023/09/25 21:12:38;;;;;;;8.07;6.63;;;;;;;-145.68;100.00;74623.28;10421067;28;20201;-73
2023/09/25 21:17:38;;;;;;;10.70;7.17;;;;;;;-145.68;100.00;74643.28;10422269;28;20311;-74
2023/09/25 21:22:39;;;;;;;9.67;7.37;;;;;;;-145.68;100.00;74643.28;10421593;28;20557;-74
2023/09/25 21:27:39;;;;;;;9.77;6.13;;;;;;;-145.68;100.00;74639.28;10419824;28;20668;-74
2023/09/25 21:32:40;;;;;;;8.73;7.73;;;;;;;-145.68;100.00;74653.25;10421058;28;20210;-73
2023/09/25 21:37:40;;;;;;;10.67;7.57;;;;;;;-145.68;100.00;74641.28;10421177;28;20224;-74
2023/09/25 21:42:41;;;;;;;11.13;8.00;;;;;;;-145.68;100.00;74647.28;10420223;28;20657;-74
2023/09/25 21:47:41;;;;;;;10.63;7.80;;;;;;;-145.68;100.00;74633.28;10419544;28;20224;-73
2023/09/25 21:52:41;;;;;;;10.53;8.00;;;;;;;-145.68;100.00;74633.28;10420063;28;20645;-73
2023/09/25 21:57:42;;;;;;;13.17;8.50;;;;;;;-145.68;100.00;74631.28;10420344;28;20274;-74
2023/09/25 22:02:42;;;;;;;10.73;9.03;;;;;;;-145.68;100.00;74635.28;10419851;28;20204;-74
2023/09/25 22:07:42;;;;;;;12.77;9.23;;;;;;;-145.68;100.00;74637.28;10419272;28;20515;-74
2023/09/25 22:12:43;;;;;;;10.57;9.50;;;;;;;-145.68;100.00;74647.28;10420364;28;20653;-74
2023/09/25 22:17:43;;;;;;;10.70;8.73;;;;;;;-145.68;100.00;74655.25;10418644;28;20216;-74
2023/09/25 22:22:45;;;;;;;11.53;8.17;;;;;;;-145.68;100.00;74669.25;10419361;28;20196;-74
2023/09/25 22:27:47;;;;;;;12.47;9.03;;;;;;;-145.68;100.00;74683.25;10417900;28;20663;-74
2023/09/25 22:32:50;;;;;;;8.67;7.77;;;;;;;-145.68;100.00;74723.25;10419895;28;20649;-74
2023/09/25 22:38:20;;;;;;;12.07;8.13;;;;;;;-145.68;100.00;74751.22;10416759;28;20645;-74